Time;durP1;ratioP1;P1;durP2;ratioP2;P2;SDS_P1;SDS_P2;PMS_P1;PMS_P2;Temp;Humidity;BMP_temperature;BMP_pressure;BME280_temperature;BME280_humidity;BME280_pressure;Samples;Min_cycle;Max_cycle;Signal;HPM_P1;HPM_P2
2023/03/16 00:00:24;;;;;;;4.22;2.20;;;4.20;99.90;;;;;;5040030;28;20041;-48
2023/03/16 00:02:49;;;;;;;7.57;2.28;;;4.20;99.90;;;;;;5042876;28;20449;-48
2023/03/16 00:05:15;;;;;;;8.80;2.57;;;4.30;99.90;;;;;;5035485;28;20518;-48
2023/03/16 00:07:42;;;;;;;7.10;2.10;;;4.30;99.90;;;;;;5031762;28;20111;-48
2023/03/16 00:10:11;;;;;;;5.88;1.77;;;4.40;99.90;;;;;;5030900;28;20069;-48
2023/03/16 00:12:36;;;;;;;6.10;2.30;;;4.30;99.90;;;;;;5030458;28;20533;-49
2023/03/16 00:15:03;;;;;;;4.27;1.70;;;4.30;99.90;;;;;;5035890;28;20128;-48
2023/03/16 00:17:29;;;;;;;9.18;2.75;;;4.30;99.90;;;;;;5030074;28;20288;-49
2023/03/16 00:19:56;;;;;;;5.13;2.15;;;4.30;99.90;;;;;;5039454;28;20154;-48
2023/03/16 00:22:29;;;;;;;7.10;1.92;;;4.30;99.90;;;;;;5045130;28;20410;-48
2023/03/16 00:24:55;;;;;;;6.43;2.20;;;4.40;99.90;;;;;;5041550;28;20037;-48
2023/03/16 00:27:24;;;;;;;4.03;1.73;;;4.40;99.90;;;;;;5031502;28;20045;-48
2023/03/16 00:29:54;;;;;;;4.32;1.88;;;4.50;99.90;;;;;;5033490;28;20572;-49
2023/03/16 00:32:26;;;;;;;5.75;1.90;;;4.50;99.90;;;;;;5044977;28;20063;-49
2023/03/16 00:34:51;;;;;;;8.55;1.70;;;4.50;99.90;;;;;;5038617;28;20102;-48
2023/03/16 00:37:19;;;;;;;5.67;1.70;;;4.40;99.90;;;;;;5045285;28;20497;-48
2023/03/16 00:39:45;;;;;;;9.57;2.38;;;4.50;99.90;;;;;;5039620;28;20094;-49
2023/03/16 00:42:13;;;;;;;5.85;1.70;;;4.40;99.90;;;;;;5043581;28;20045;-48
2023/03/16 00:44:40;;;;;;;6.80;1.95;;;4.40;99.90;;;;;;5032348;28;20084;-48
2023/03/16 00:47:06;;;;;;;3.72;1.90;;;4.40;99.90;;;;;;5036737;28;20045;-48
2023/03/16 00:49:33;;;;;;;8.65;1.95;;;4.40;99.90;;;;;;5034382;28;20402;-48
2023/03/16 00:52:01;;;;;;;5.03;2.10;;;4.40;99.90;;;;;;5030792;28;20037;-48
2023/03/16 00:54:27;;;;;;;7.65;2.83;;;4.40;99.90;;;;;;5033667;28;20529;-48
2023/03/16 00:56:52;;;;;;;8.45;2.85;;;4.40;99.90;;;;;;5034934;28;20060;-48
2023/03/16 00:59:20;;;;;;;3.27;2.13;;;4.40;99.90;;;;;;5036079;28;20336;-48
2023/03/16 01:01:46;;;;;;;7.43;2.60;;;4.30;99.90;;;;;;5032424;28;20064;-48
2023/03/16 01:04:12;;;;;;;5.07;2.60;;;4.30;99.90;;;;;;5031797;28;20794;-48
2023/03/16 01:06:39;;;;;;;7.30;2.30;;;4.30;99.90;;;;;;5031036;28;20041;-48
2023/03/16 01:09:05;;;;;;;6.47;3.05;;;4.30;99.90;;;;;;5034899;28;20084;-49
2023/03/16 01:11:34;;;;;;;3.75;2.65;;;4.30;99.90;;;;;;5036677;28;20083;-48
2023/03/16 01:14:00;;;;;;;4.22;2.60;;;4.30;99.90;;;;;;5031350;28;20128;-48
2023/03/16 01:16:26;;;;;;;8.00;3.38;;;4.20;99.90;;;;;;5032829;28;20145;-48
2023/03/16 01:18:52;;;;;;;11.65;3.33;;;4.20;99.90;;;;;;5035133;28;20061;-49
2023/03/16 01:21:18;;;;;;;5.68;2.53;;;4.10;99.90;;;;;;5030929;28;20075;-50
2023/03/16 01:23:43;;;;;;;7.03;3.30;;;4.00;99.90;;;;;;5037670;28;20120;-50
2023/03/16 01:26:10;;;;;;;5.70;3.17;;;4.00;99.90;;;;;;5046914;28;20127;-48
2023/03/16 01:28:36;;;;;;;6.45;3.20;;;3.90;99.90;;;;;;5043664;28;20414;-48
2023/03/16 01:31:10;;;;;;;13.65;3.67;;;3.90;99.90;;;;;;5038706;28;20208;-48
2023/03/16 01:33:37;;;;;;;9.23;3.40;;;3.90;99.90;;;;;;5047463;28;20071;-48
2023/03/16 01:36:04;;;;;;;;;;;3.80;99.90;;;;;;5046644;28;20040;-48
2023/03/16 01:38:30;;;;;;;10.57;4.22;;;3.80;99.90;;;;;;5034203;28;20325;-48
2023/03/16 01:40:56;;;;;;;5.97;3.42;;;3.70;99.90;;;;;;5041744;28;20319;-49
2023/03/16 01:43:25;;;;;;;5.50;3.30;;;3.70;99.90;;;;;;5030123;28;20037;-48
2023/03/16 01:46:03;;;;;;;8.68;3.10;;;3.70;99.90;;;;;;5031752;28;20082;-48
2023/03/16 01:48:36;;;;;;;6.35;2.92;;;3.70;99.90;;;;;;5035369;28;20431;-48
2023/03/16 01:51:08;;;;;;;9.40;3.60;;;3.70;99.90;;;;;;5030200;28;20453;-49
2023/03/16 01:53:35;;;;;;;6.32;3.28;;;3.70;99.90;;;;;;5031864;28;20031;-48
2023/03/16 01:56:07;;;;;;;6.32;3.90;;;3.70;99.90;;;;;;5044340;28;20144;-48
2023/03/16 01:58:34;;;;;;;7.15;3.22;;;3.70;99.90;;;;;;5047863;28;20057;-48
2023/03/16 02:01:00;;;;;;;9.20;3.20;;;3.60;99.90;;;;;;5046544;28;20033;-48
2023/03/16 02:03:26;;;;;;;5.78;2.75;;;3.60;99.90;;;;;;5045541;28;20116;-48
2023/03/16 02:06:09;;;;;;;13.75;3.22;;;3.60;99.90;;;;;;5039415;28;20032;-48
2023/03/16 02:08:37;;;;;;;5.20;3.20;;;3.60;99.90;;;;;;5050118;28;20032;-48
2023/03/16 02:11:04;;;;;;;7.97;3.42;;;3.60;99.90;;;;;;5047475;28;20048;-48
2023/03/16 02:13:32;;;;;;;;;;;3.50;99.90;;;;;;5050598;28;20039;-48
2023/03/16 02:15:58;;;;;;;5.13;3.13;;;3.60;99.90;;;;;;5047544;28;19921;-48
2023/03/16 02:18:25;;;;;;;8.48;3.55;;;3.50;99.90;;;;;;5038155;28;20029;-48
2023/03/16 02:21:00;;;;;;;9.43;2.80;;;3.50;99.90;;;;;;5033923;28;20037;-48
2023/03/16 02:23:26;;;;;;;6.57;3.05;;;3.50;99.90;;;;;;5039743;28;20300;-48
2023/03/16 02:25:57;;;;;;;8.88;3.35;;;3.50;99.90;;;;;;5038062;28;21248;-48
2023/03/16 02:28:48;;;;;;;9.25;3.55;;;3.50;99.90;;;;;;5044370;28;20153;-48
2023/03/16 02:31:18;;;;;;;8.90;2.90;;;3.50;99.90;;;;;;5043113;28;20514;-48
2023/03/16 02:33:46;;;;;;;6.30;2.65;;;3.50;99.90;;;;;;5044207;28;20147;-47
2023/03/16 02:36:17;;;;;;;13.15;3.83;;;3.60;99.90;;;;;;5041764;28;20115;-51
2023/03/16 02:38:43;;;;;;;7.38;2.72;;;3.60;99.90;;;;;;5047778;28;20029;-47
2023/03/16 02:41:15;;;;;;;7.90;4.00;;;3.60;99.90;;;;;;5045351;28;20034;-48
2023/03/16 02:43:46;;;;;;;11.38;2.60;;;3.60;99.90;;;;;;5034169;28;20087;-48
2023/03/16 02:46:13;;;;;;;6.30;3.47;;;3.60;99.90;;;;;;5047018;28;20453;-48
2023/03/16 02:48:46;;;;;;;5.78;2.90;;;3.60;99.90;;;;;;5045725;28;20039;-48
2023/03/16 02:51:12;;;;;;;8.32;3.17;;;3.70;99.90;;;;;;5042849;28;20498;-47
2023/03/16 02:53:38;;;;;;;7.67;3.03;;;3.70;99.90;;;;;;5038256;28;20043;-48
2023/03/16 02:56:04;;;;;;;8.55;3.13;;;3.80;99.90;;;;;;5046450;28;20056;-48
2023/03/16 02:58:30;;;;;;;12.50;4.35;;;3.80;99.90;;;;;;5037238;28;20044;-48
2023/03/16 03:00:57;;;;;;;6.32;2.88;;;3.90;99.90;;;;;;5047921;28;20032;-47
2023/03/16 03:03:22;;;;;;;7.13;3.20;;;3.90;99.90;;;;;;5046843;28;20029;-48
2023/03/16 03:05:48;;;;;;;4.85;2.75;;;3.90;99.90;;;;;;5035747;28;20029;-48
2023/03/16 03:08:14;;;;;;;7.53;2.65;;;4.00;99.90;;;;;;5040477;28;20037;-48
2023/03/16 03:10:40;;;;;;;8.13;3.10;;;4.00;99.90;;;;;;5048503;28;20060;-48
2023/03/16 03:13:08;;;;;;;6.23;3.17;;;4.00;99.90;;;;;;5044295;28;20511;-48
2023/03/16 03:15:34;;;;;;;5.50;3.45;;;4.10;99.90;;;;;;5033263;28;20029;-47
2023/03/16 03:18:00;;;;;;;5.88;2.83;;;4.10;99.90;;;;;;5038680;28;20410;-48
2023/03/16 03:20:26;;;;;;;4.18;2.60;;;4.10;99.90;;;;;;5036234;28;20038;-47
2023/03/16 03:22:51;;;;;;;8.20;2.97;;;4.10;99.90;;;;;;5033598;28;20048;-48
2023/03/16 03:25:18;;;;;;;6.00;2.30;;;4.10;99.90;;;;;;5036524;28;20044;-48
2023/03/16 03:27:45;;;;;;;5.72;3.00;;;4.10;99.90;;;;;;5046612;28;20032;-49
2023/03/16 03:30:12;;;;;;;;;;;4.10;99.90;;;;;;5038768;28;20042;-47
2023/03/16 03:32:39;;;;;;;7.15;2.90;;;4.10;99.90;;;;;;5033581;28;19951;-48
2023/03/16 03:35:06;;;;;;;11.70;3.42;;;4.20;99.90;;;;;;5042608;28;20045;-48
2023/03/16 03:37:31;;;;;;;;;;;4.20;99.90;;;;;;5047172;28;20025;-48
2023/03/16 03:39:57;;;;;;;7.35;2.88;;;4.20;99.90;;;;;;5039698;28;19917;-48
2023/03/16 03:42:22;;;;;;;5.83;3.30;;;4.20;99.90;;;;;;5035707;28;20130;-48
2023/03/16 03:44:50;;;;;;;13.47;3.17;;;4.20;99.90;;;;;;5034747;28;20288;-48
2023/03/16 03:47:16;;;;;;;7.28;3.05;;;4.20;99.90;;;;;;5046566;28;20189;-49
2023/03/16 03:49:42;;;;;;;6.50;3.47;;;4.20;99.90;;;;;;5044554;28;20209;-48
2023/03/16 03:52:07;;;;;;;6.70;3.07;;;4.20;99.90;;;;;;5046480;28;20505;-48
2023/03/16 03:54:33;;;;;;;8.43;2.93;;;4.20;99.90;;;;;;5044818;28;20109;-48
2023/03/16 03:56:59;;;;;;;8.82;3.53;;;4.20;99.90;;;;;;5046748;28;20040;-48
2023/03/16 03:59:25;;;;;;;3.50;2.60;;;4.20;99.90;;;;;;5047018;28;20398;-48
2023/03/16 04:01:52;;;;;;;8.37;3.33;;;4.20;99.90;;;;;;5044235;28;20040;-49
2023/03/16 04:04:18;;;;;;;5.18;3.28;;;4.10;99.90;;;;;;5032785;28;20520;-48
2023/03/16 04:06:44;;;;;;;7.13;3.10;;;4.10;99.90;;;;;;5033132;28;20498;-48
2023/03/16 04:09:10;;;;;;;11.95;3.75;;;4.10;99.90;;;;;;5043177;28;20517;-48
2023/03/16 04:11:36;;;;;;;8.35;3.53;;;4.00;99.90;;;;;;5035186;28;20068;-48
2023/03/16 04:14:02;;;;;;;4.45;3.47;;;4.00;99.90;;;;;;5031832;28;20037;-47
2023/03/16 04:16:28;;;;;;;4.43;3.05;;;4.00;99.90;;;;;;5039113;28;20091;-49
2023/03/16 04:18:55;;;;;;;6.07;3.70;;;4.00;99.90;;;;;;5033189;28;20044;-48
2023/03/16 04:21:21;;;;;;;8.23;4.47;;;4.00;99.90;;;;;;5031660;28;20048;-47
2023/03/16 04:23:47;;;;;;;6.25;3.22;;;4.00;99.90;;;;;;5034002;28;20041;-48
2023/03/16 04:26:13;;;;;;;7.93;4.45;;;4.10;99.90;;;;;;5034066;28;20461;-48
2023/03/16 04:28:39;;;;;;;4.57;3.40;;;4.10;99.90;;;;;;5037582;28;20041;-48
2023/03/16 04:31:09;;;;;;;7.25;3.20;;;4.10;99.90;;;;;;5043266;28;20044;-47
2023/03/16 04:33:36;;;;;;;8.88;3.88;;;4.00;99.90;;;;;;5048179;28;20047;-48
2023/03/16 04:36:02;;;;;;;6.25;3.45;;;4.10;99.90;;;;;;5045812;28;20034;-49
2023/03/16 04:38:29;;;;;;;11.90;3.60;;;4.10;99.90;;;;;;5043204;28;20040;-48
2023/03/16 04:40:55;;;;;;;4.38;2.88;;;4.00;99.90;;;;;;5044973;28;20075;-48
2023/03/16 04:43:21;;;;;;;7.60;3.72;;;4.00;99.90;;;;;;5043560;28;20056;-48
2023/03/16 04:45:47;;;;;;;4.82;3.47;;;4.00;99.90;;;;;;5041131;28;20033;-48
2023/03/16 04:48:13;;;;;;;6.07;3.03;;;4.00;99.90;;;;;;5037911;28;20083;-48
2023/03/16 04:50:39;;;;;;;4.23;3.10;;;4.00;99.90;;;;;;5040219;28;20287;-48
2023/03/16 04:53:04;;;;;;;7.30;3.65;;;4.00;99.90;;;;;;5035203;28;20065;-48
2023/03/16 04:55:30;;;;;;;6.47;3.27;;;4.00;99.90;;;;;;5040074;28;20146;-49
2023/03/16 04:57:56;;;;;;;11.35;4.07;;;4.10;99.90;;;;;;5042024;28;20111;-49
2023/03/16 05:00:22;;;;;;;7.28;3.63;;;4.10;99.90;;;;;;5045212;28;20395;-48
2023/03/16 05:02:50;;;;;;;4.82;2.95;;;4.10;99.90;;;;;;5046056;28;20614;-48
2023/03/16 05:05:16;;;;;;;5.60;3.20;;;4.10;99.90;;;;;;5045231;28;20312;-48
2023/03/16 05:07:43;;;;;;;6.07;3.60;;;4.00;99.90;;;;;;5044291;28;20048;-48
2023/03/16 05:10:10;;;;;;;3.88;3.38;;;4.10;99.90;;;;;;5043597;28;20426;-48
2023/03/16 05:12:36;;;;;;;9.38;3.25;;;4.10;99.90;;;;;;5042674;28;20037;-48
2023/03/16 05:15:02;;;;;;;6.53;3.42;;;4.10;99.90;;;;;;5030538;28;20049;-48
2023/03/16 05:17:27;;;;;;;6.38;3.92;;;4.20;99.90;;;;;;5031088;28;20498;-50
2023/03/16 05:19:53;;;;;;;3.80;3.30;;;4.20;99.90;;;;;;5031094;28;20029;-48
2023/03/16 05:22:18;;;;;;;5.73;2.90;;;4.20;99.90;;;;;;5032370;28;20041;-50
2023/03/16 05:24:44;;;;;;;5.77;3.37;;;4.20;99.90;;;;;;5034250;28;20045;-48
2023/03/16 05:27:10;;;;;;;4.73;2.97;;;4.20;99.90;;;;;;5046228;28;20042;-48
2023/03/16 05:29:35;;;;;;;5.93;3.10;;;4.30;99.90;;;;;;5041585;28;21195;-48
2023/03/16 05:32:01;;;;;;;4.13;2.97;;;4.30;99.90;;;;;;5044344;28;20046;-49
2023/03/16 05:34:26;;;;;;;5.97;2.87;;;4.30;99.90;;;;;;5044563;28;20427;-48
2023/03/16 05:36:52;;;;;;;4.57;3.07;;;4.30;99.90;;;;;;5042100;28;20025;-47
2023/03/16 05:39:17;;;;;;;7.20;3.17;;;4.30;99.90;;;;;;5041814;28;20033;-48
2023/03/16 05:41:43;;;;;;;4.83;3.43;;;4.30;99.90;;;;;;5039120;28;20124;-48
2023/03/16 05:44:09;;;;;;;5.97;3.07;;;4.40;99.90;;;;;;5030835;28;20033;-48
2023/03/16 05:46:35;;;;;;;3.90;2.00;;;4.30;99.90;;;;;;5031141;28;20037;-48
2023/03/16 05:49:01;;;;;;;5.32;3.70;;;4.30;99.90;;;;;;5030468;28;20040;-48
2023/03/16 05:51:27;;;;;;;8.48;4.53;;;4.40;99.90;;;;;;5030266;28;20041;-48
2023/03/16 05:53:56;;;;;;;9.23;3.30;;;4.40;99.90;;;;;;5030206;28;20438;-49
2023/03/16 05:56:26;;;;;;;4.80;2.95;;;4.30;99.90;;;;;;5035089;28;20029;-49
2023/03/16 05:58:53;;;;;;;4.32;3.92;;;4.40;99.90;;;;;;5031339;28;20099;-49
2023/03/16 06:01:20;;;;;;;3.67;2.67;;;4.40;99.90;;;;;;5045789;28;20044;-48
2023/03/16 06:03:47;;;;;;;4.32;2.30;;;4.40;99.90;;;;;;5042730;28;20444;-48
2023/03/16 06:06:15;;;;;;;3.65;2.92;;;4.50;99.90;;;;;;5041793;28;20037;-47
2023/03/16 06:08:41;;;;;;;9.45;2.78;;;4.40;99.90;;;;;;5034190;28;20056;-48
2023/03/16 06:11:07;;;;;;;4.13;3.35;;;4.50;99.90;;;;;;5031626;28;20502;-48
2023/03/16 06:13:33;;;;;;;6.70;2.63;;;4.50;99.90;;;;;;5032498;28;20041;-48
2023/03/16 06:15:58;;;;;;;5.45;3.45;;;4.50;99.90;;;;;;5031507;28;20272;-48
2023/03/16 06:18:24;;;;;;;3.20;2.77;;;4.50;99.90;;;;;;5029349;28;20040;-48
2023/03/16 06:20:50;;;;;;;6.38;3.13;;;4.50;99.90;;;;;;5032054;28;20068;-48
2023/03/16 06:23:18;;;;;;;2.95;2.70;;;4.50;99.90;;;;;;5030691;28;20037;-48
2023/03/16 06:25:49;;;;;;;4.75;3.17;;;4.50;99.90;;;;;;5030812;28;20120;-48
2023/03/16 06:28:17;;;;;;;5.00;3.30;;;4.50;99.90;;;;;;5035683;28;20037;-48
2023/03/16 06:30:42;;;;;;;7.82;2.85;;;4.50;99.90;;;;;;5030973;28;20083;-49
2023/03/16 06:33:08;;;;;;;5.17;3.00;;;4.60;99.90;;;;;;5029879;28;20037;-48
2023/03/16 06:35:34;;;;;;;4.67;2.57;;;4.60;99.90;;;;;;5033350;28;20552;-48
2023/03/16 06:37:59;;;;;;;3.37;2.53;;;4.60;99.90;;;;;;5043252;28;20036;-49
2023/03/16 06:40:25;;;;;;;8.18;2.65;;;4.60;99.90;;;;;;5045240;28;20041;-49
2023/03/16 06:42:50;;;;;;;3.17;2.53;;;4.60;99.90;;;;;;5034631;28;20038;-48
2023/03/16 06:45:16;;;;;;;4.97;2.73;;;4.60;99.90;;;;;;5035891;28;20410;-49
2023/03/16 06:47:43;;;;;;;6.43;3.25;;;4.60;99.90;;;;;;5034246;28;20080;-48
2023/03/16 06:50:10;;;;;;;6.35;3.25;;;4.60;99.90;;;;;;5035486;28;20030;-48
2023/03/16 06:52:36;;;;;;;3.53;2.30;;;4.60;99.90;;;;;;5046228;28;20486;-48
2023/03/16 06:55:01;;;;;;;6.13;2.90;;;4.60;99.90;;;;;;5046683;28;20037;-50
2023/03/16 06:57:27;;;;;;;3.93;2.73;;;4.60;99.90;;;;;;5035554;28;20038;-53
2023/03/16 06:59:53;;;;;;;4.17;2.87;;;4.60;99.90;;;;;;5048419;28;20088;-48
2023/03/16 07:02:19;;;;;;;4.83;3.40;;;4.70;99.90;;;;;;5048683;28;20037;-48
2023/03/16 07:04:45;;;;;;;4.72;2.63;;;4.70;99.90;;;;;;5039198;28;20038;-48
2023/03/16 07:07:10;;;;;;;5.53;2.85;;;4.70;99.90;;;;;;5036523;28;20501;-48
2023/03/16 07:09:37;;;;;;;4.43;2.60;;;4.80;99.90;;;;;;5031919;28;20053;-50
2023/03/16 07:12:03;;;;;;;7.30;3.17;;;4.80;99.90;;;;;;5034393;28;20041;-49
2023/03/16 07:14:29;;;;;;;5.20;2.95;;;4.80;99.90;;;;;;5039439;28;20056;-48
2023/03/16 07:16:55;;;;;;;5.38;3.40;;;4.90;99.90;;;;;;5035284;28;20044;-48
2023/03/16 07:19:21;;;;;;;6.72;3.42;;;4.80;99.90;;;;;;5034207;28;20026;-48
2023/03/16 07:21:47;;;;;;;5.68;2.65;;;4.80;99.90;;;;;;5042331;28;20049;-48
2023/03/16 07:24:14;;;;;;;3.95;2.65;;;4.90;99.90;;;;;;5035223;28;20044;-48
2023/03/16 07:26:40;;;;;;;4.05;2.88;;;4.90;99.90;;;;;;5038952;28;20051;-48
2023/03/16 07:29:06;;;;;;;4.90;2.58;;;4.90;99.90;;;;;;5044437;28;20045;-48
2023/03/16 07:31:33;;;;;;;3.28;2.97;;;4.90;99.90;;;;;;5035214;28;20393;-49
2023/03/16 07:33:59;;;;;;;4.00;3.00;;;5.00;99.90;;;;;;5044952;28;20063;-49
2023/03/16 07:36:25;;;;;;;7.07;3.17;;;5.00;99.90;;;;;;5049935;28;20036;-49
2023/03/16 07:38:51;;;;;;;2.97;2.38;;;5.00;99.90;;;;;;5039833;28;20033;-49
2023/03/16 07:41:16;;;;;;;5.43;2.70;;;5.00;99.90;;;;;;5039682;28;20125;-48
2023/03/16 07:43:43;;;;;;;5.70;3.10;;;5.00;99.90;;;;;;5038355;28;20033;-49
2023/03/16 07:46:12;;;;;;;5.28;3.08;;;5.10;99.90;;;;;;5039016;28;20048;-49
2023/03/16 07:48:38;;;;;;;6.85;3.10;;;5.10;99.90;;;;;;5046970;28;20095;-49
2023/03/16 07:51:04;;;;;;;;;;;5.10;99.90;;;;;;5035244;28;20116;-48
2023/03/16 07:53:30;;;;;;;6.80;3.30;;;5.20;99.90;;;;;;5036175;28;20003;-48
2023/03/16 07:55:56;;;;;;;3.60;3.00;;;5.20;99.90;;;;;;5032449;28;20045;-47
2023/03/16 07:58:22;;;;;;;3.87;3.07;;;5.20;99.90;;;;;;5030447;28;20513;-49
2023/03/16 08:00:47;;;;;;;6.40;2.65;;;5.30;99.90;;;;;;5030747;28;20402;-48
2023/03/16 08:03:13;;;;;;;7.10;3.37;;;5.30;99.90;;;;;;5041936;28;20052;-48
2023/03/16 08:05:39;;;;;;;6.10;3.67;;;5.30;99.90;;;;;;5042555;28;20033;-49
2023/03/16 08:08:08;;;;;;;3.43;2.83;;;5.30;99.90;;;;;;5038924;28;20124;-48
2023/03/16 08:10:34;;;;;;;5.50;3.10;;;5.40;99.90;;;;;;5040018;28;20044;-48
2023/03/16 08:13:01;;;;;;;4.07;3.00;;;5.40;99.90;;;;;;5030676;28;20053;-49
2023/03/16 08:15:26;;;;;;;4.10;3.17;;;5.40;99.90;;;;;;5030970;28;20052;-49
2023/03/16 08:17:52;;;;;;;5.73;3.30;;;5.50;99.90;;;;;;5030228;28;20026;-51
2023/03/16 08:20:18;;;;;;;5.20;3.38;;;5.50;99.90;;;;;;5029530;28;20065;-50
2023/03/16 08:22:45;;;;;;;6.78;3.20;;;5.60;99.90;;;;;;5031212;28;20627;-48
2023/03/16 08:25:11;;;;;;;3.42;3.13;;;5.60;99.90;;;;;;5044525;28;20476;-47
2023/03/16 08:27:37;;;;;;;;;;;5.60;99.90;;;;;;5037240;28;20045;-48
2023/03/16 08:30:05;;;;;;;10.20;3.55;;;5.60;99.90;;;;;;5034623;28;19917;-48
2023/03/16 08:32:31;;;;;;;4.60;2.75;;;5.60;99.90;;;;;;5046470;28;20116;-48
2023/03/16 08:34:59;;;;;;;5.70;3.92;;;5.60;99.90;;;;;;5043005;28;20051;-48
2023/03/16 08:37:26;;;;;;;13.63;3.55;;;5.60;99.90;;;;;;5048087;28;20069;-49
2023/03/16 08:39:53;;;;;;;7.80;3.60;;;5.70;99.90;;;;;;5047783;28;20116;-48
2023/03/16 08:42:19;;;;;;;7.95;3.65;;;5.60;99.90;;;;;;5048689;28;20041;-48
2023/03/16 08:44:46;;;;;;;6.43;3.22;;;5.70;99.90;;;;;;5047155;28;20033;-48
2023/03/16 08:47:13;;;;;;;10.95;5.72;;;5.70;99.90;;;;;;5048086;28;20047;-48
2023/03/16 08:49:38;;;;;;;;;;;5.70;99.90;;;;;;5043073;28;20095;-47
2023/03/16 08:52:04;;;;;;;6.80;3.38;;;5.70;99.90;;;;;;5047291;28;20011;-47
2023/03/16 08:54:31;;;;;;;5.97;4.63;;;5.70;99.90;;;;;;5049287;28;20043;-48
2023/03/16 08:56:57;;;;;;;6.50;4.03;;;5.70;99.90;;;;;;5044946;28;20328;-48
2023/03/16 08:59:23;;;;;;;8.63;4.10;;;5.70;99.90;;;;;;5046883;28;20566;-48
2023/03/16 09:01:49;;;;;;;5.93;4.60;;;5.70;99.90;;;;;;5044817;28;20037;-48
2023/03/16 09:04:14;;;;;;;5.93;5.33;;;5.70;99.90;;;;;;5047772;28;20048;-48
2023/03/16 09:06:40;;;;;;;5.30;4.37;;;5.80;99.90;;;;;;5047489;28;20037;-48
2023/03/16 09:09:08;;;;;;;9.10;4.40;;;5.80;99.90;;;;;;5047404;28;20524;-47
2023/03/16 09:11:34;;;;;;;7.57;3.90;;;5.80;99.90;;;;;;5046654;28;20575;-48
2023/03/16 09:14:01;;;;;;;6.18;4.03;;;5.80;99.90;;;;;;5047195;28;20429;-48
2023/03/16 09:16:26;;;;;;;8.43;4.63;;;5.90;99.90;;;;;;5046573;28;20090;-47
2023/03/16 09:18:52;;;;;;;8.63;5.37;;;5.90;99.90;;;;;;5041956;28;20452;-46
2023/03/16 09:21:18;;;;;;;7.78;4.40;;;5.90;99.90;;;;;;5047118;28;20045;-47
2023/03/16 09:23:44;;;;;;;7.90;4.10;;;5.90;99.90;;;;;;5048163;28;20116;-47
2023/03/16 09:26:12;;;;;;;5.28;3.58;;;5.90;99.90;;;;;;5047110;28;20151;-48
2023/03/16 09:28:40;;;;;;;4.40;3.95;;;6.00;99.90;;;;;;5044879;28;20040;-48
2023/03/16 09:31:07;;;;;;;7.13;4.75;;;6.00;99.90;;;;;;5047402;28;20033;-46
2023/03/16 09:33:34;;;;;;;6.22;3.95;;;6.00;99.90;;;;;;5046176;28;20832;-48
2023/03/16 09:36:00;;;;;;;8.68;4.55;;;6.00;99.90;;;;;;5047709;28;20052;-46
2023/03/16 09:38:27;;;;;;;8.18;4.88;;;6.00;99.90;;;;;;5047831;28;20098;-46
2023/03/16 09:41:01;;;;;;;6.97;4.15;;;6.00;99.90;;;;;;5047508;28;20486;-48
2023/03/16 09:43:55;;;;;;;8.68;4.05;;;6.00;99.90;;;;;;5045696;28;20076;-46
2023/03/16 09:46:31;;;;;;;11.98;5.65;;;6.10;99.90;;;;;;5046436;28;20048;-48
2023/03/16 09:48:58;;;;;;;7.90;5.03;;;6.10;99.90;;;;;;5047281;28;20041;-47
2023/03/16 09:51:45;;;;;;;7.80;4.70;;;6.10;99.90;;;;;;5045721;28;20533;-47
2023/03/16 09:54:19;;;;;;;;;;;6.10;99.90;;;;;;5046404;28;20049;-48
2023/03/16 09:56:48;;;;;;;7.07;4.40;;;6.10;99.90;;;;;;5046498;28;20447;-47
2023/03/16 09:59:17;;;;;;;5.65;4.22;;;6.10;99.90;;;;;;5045595;28;20068;-48
2023/03/16 10:02:00;;;;;;;5.72;5.00;;;6.10;99.90;;;;;;5047785;28;20045;-48
2023/03/16 10:04:44;;;;;;;8.60;5.50;;;6.20;99.90;;;;;;5043412;28;20071;-47
2023/03/16 10:07:11;;;;;;;6.57;5.00;;;6.20;99.90;;;;;;5047494;28;20087;-48
2023/03/16 10:10:04;;;;;;;9.00;5.30;;;6.20;99.90;;;;;;5046732;28;20473;-47
2023/03/16 10:12:36;;;;;;;10.27;5.55;;;6.20;99.90;;;;;;5044206;28;20045;-46
2023/03/16 10:15:15;;;;;;;8.35;5.35;;;6.20;99.90;;;;;;5047242;28;20083;-48
2023/03/16 10:17:59;;;;;;;7.15;4.63;;;6.20;99.90;;;;;;5049073;28;20379;-47
2023/03/16 10:20:31;;;;;;;6.93;5.28;;;6.10;99.90;;;;;;5049635;28;20029;-48
2023/03/16 10:23:00;;;;;;;9.48;6.55;;;6.10;99.90;;;;;;5050224;28;20305;-49
2023/03/16 10:25:48;;;;;;;8.45;5.00;;;6.10;99.90;;;;;;5048412;28;20052;-46
2023/03/16 10:28:15;;;;;;;;;;;6.10;99.90;;;;;;5049146;28;20049;-47
2023/03/16 10:30:41;;;;;;;8.90;5.23;;;6.20;99.90;;;;;;5047441;28;20302;-46
2023/03/16 10:33:18;;;;;;;11.07;4.70;;;6.20;99.90;;;;;;5050870;28;20052;-46
2023/03/16 10:35:58;;;;;;;11.30;5.38;;;6.20;99.90;;;;;;5045581;28;20051;-48
2023/03/16 10:38:41;;;;;;;8.35;6.50;;;6.30;99.90;;;;;;5047719;28;20048;-47
2023/03/16 10:41:30;;;;;;;7.53;5.00;;;6.30;99.90;;;;;;5047524;28;20118;-48
2023/03/16 10:44:00;;;;;;;6.70;4.45;;;6.30;99.90;;;;;;5049890;28;20028;-47
2023/03/16 10:46:27;;;;;;;7.10;4.95;;;6.40;99.90;;;;;;5046551;28;20056;-46
2023/03/16 10:48:59;;;;;;;9.77;4.95;;;6.40;99.90;;;;;;5047247;28;20056;-46
2023/03/16 10:51:28;;;;;;;10.32;5.00;;;6.40;99.90;;;;;;5047111;28;20053;-47
2023/03/16 10:54:06;;;;;;;6.00;4.53;;;6.40;99.90;;;;;;5050199;28;20504;-48
2023/03/16 10:56:37;;;;;;;6.63;5.00;;;6.50;99.90;;;;;;5047643;28;20036;-47
2023/03/16 10:59:14;;;;;;;9.45;4.68;;;6.50;99.90;;;;;;5047982;28;20449;-46
2023/03/16 11:01:44;;;;;;;6.63;4.47;;;6.50;99.90;;;;;;5045827;28;20043;-46
2023/03/16 11:04:14;;;;;;;7.68;4.97;;;6.50;99.90;;;;;;5049399;28;20545;-46
2023/03/16 11:06:56;;;;;;;7.13;4.40;;;6.60;99.90;;;;;;5045169;28;20044;-48
2023/03/16 11:09:26;;;;;;;7.85;4.53;;;6.60;99.90;;;;;;5047924;28;20398;-47
2023/03/16 11:11:52;;;;;;;6.78;4.45;;;6.70;99.90;;;;;;5048749;28;20040;-48
2023/03/16 11:14:21;;;;;;;7.97;4.47;;;6.70;99.90;;;;;;5050287;28;20040;-48
2023/03/16 11:16:46;;;;;;;5.07;3.78;;;6.70;99.90;;;;;;5045839;28;20528;-48
2023/03/16 11:19:47;;;;;;;6.17;3.50;;;6.70;99.90;;;;;;5050287;28;20037;-48
2023/03/16 11:22:23;;;;;;;4.70;3.35;;;6.80;99.90;;;;;;5049977;28;20047;-46
2023/03/16 11:24:54;;;;;;;5.15;3.67;;;6.80;99.90;;;;;;5045176;28;20089;-48
2023/03/16 11:27:25;;;;;;;6.43;3.50;;;6.90;99.90;;;;;;5037199;28;20037;-48
2023/03/16 11:29:57;;;;;;;6.93;3.30;;;6.90;99.90;;;;;;5047269;28;20102;-48
2023/03/16 11:32:36;;;;;;;7.50;3.58;;;6.90;99.90;;;;;;5043783;28;20060;-48
2023/03/16 11:35:13;;;;;;;6.35;3.90;;;7.00;99.90;;;;;;5032451;28;20339;-46
2023/03/16 11:37:47;;;;;;;;;;;7.00;99.90;;;;;;5038700;28;20402;-46
2023/03/16 11:40:22;;;;;;;4.40;3.65;;;7.10;99.90;;;;;;5038656;28;19917;-47
2023/03/16 11:43:10;;;;;;;5.95;3.97;;;7.10;99.90;;;;;;5040239;28;20543;-48
2023/03/16 11:45:59;;;;;;;4.22;3.00;;;7.20;99.90;;;;;;5034321;28;20045;-48
2023/03/16 11:48:47;;;;;;;5.78;4.15;;;7.30;99.90;;;;;;5032838;28;20076;-48
2023/03/16 11:51:41;;;;;;;;;;;7.30;99.90;;;;;;5039134;28;20045;-49
2023/03/16 11:54:13;;;;;;;15.02;3.70;;;7.30;99.90;;;;;;5036698;28;20416;-48
2023/03/16 11:56:44;;;;;;;4.75;3.60;;;7.30;99.90;;;;;;5035823;28;20040;-47
2023/03/16 11:59:28;;;;;;;6.22;3.13;;;7.40;99.90;;;;;;5041212;28;20041;-46
2023/03/16 12:02:19;;;;;;;5.60;3.00;;;7.50;99.90;;;;;;5046591;28;20040;-48
2023/03/16 12:05:18;;;;;;;6.90;3.22;;;7.60;99.90;;;;;;5042235;28;20045;-47
2023/03/16 12:07:58;;;;;;;5.45;3.42;;;7.60;99.90;;;;;;5049556;28;20052;-48
2023/03/16 12:10:46;;;;;;;5.30;3.30;;;7.70;99.90;;;;;;5038451;28;20033;-48
2023/03/16 12:13:29;;;;;;;3.88;3.47;;;7.90;99.90;;;;;;5042732;28;20041;-48
2023/03/16 12:16:21;;;;;;;4.47;3.28;;;8.00;99.90;;;;;;5045456;28;20030;-46
2023/03/16 12:18:49;;;;;;;4.57;3.47;;;8.10;99.90;;;;;;5043256;28;20057;-47
2023/03/16 12:21:37;;;;;;;6.43;3.50;;;8.20;99.90;;;;;;5050050;28;20040;-49
2023/03/16 12:24:06;;;;;;;7.55;4.65;;;8.30;99.90;;;;;;5048751;28;20033;-47
2023/03/16 12:26:41;;;;;;;7.57;4.00;;;8.40;99.90;;;;;;5047810;28;20076;-47
2023/03/16 12:29:28;;;;;;;5.50;2.92;;;8.40;99.90;;;;;;5044452;28;20038;-48
2023/03/16 12:32:07;;;;;;;5.05;2.72;;;8.50;99.90;;;;;;5036440;28;20079;-46
2023/03/16 12:34:43;;;;;;;5.25;3.70;;;8.40;99.90;;;;;;5044478;28;20449;-48
2023/03/16 12:37:18;;;;;;;7.63;3.60;;;8.50;99.90;;;;;;5045941;28;20033;-48
2023/03/16 12:39:50;;;;;;;5.97;3.47;;;8.50;99.90;;;;;;5045949;28;20029;-48
2023/03/16 12:42:22;;;;;;;7.95;3.53;;;8.50;99.90;;;;;;5045617;28;20052;-47
2023/03/16 12:45:01;;;;;;;4.65;2.88;;;8.50;99.90;;;;;;5045777;28;20086;-48
2023/03/16 12:47:35;;;;;;;4.22;3.33;;;8.60;99.90;;;;;;5063446;28;20048;-46
2023/03/16 12:50:10;;;;;;;4.40;3.03;;;8.60;99.90;;;;;;5033891;28;20069;-47
2023/03/16 12:52:44;;;;;;;5.80;3.13;;;8.50;99.90;;;;;;5048331;28;20060;-46
2023/03/16 12:55:38;;;;;;;3.08;2.42;;;8.50;99.90;;;;;;5039940;28;20110;-49
2023/03/16 12:58:07;;;;;;;5.13;3.33;;;8.50;99.90;;;;;;5047314;28;20024;-48
2023/03/16 13:00:39;;;;;;;6.60;2.78;;;8.50;99.90;;;;;;5048679;28;20510;-49
2023/03/16 13:03:12;;;;;;;5.30;3.20;;;8.60;99.90;;;;;;5047240;28;20387;-49
2023/03/16 13:05:51;;;;;;;4.95;3.35;;;8.60;99.90;;;;;;5038973;28;20037;-47
2023/03/16 13:08:19;;;;;;;5.88;2.95;;;8.60;99.90;;;;;;5035814;28;20064;-48
2023/03/16 13:11:08;;;;;;;4.57;2.80;;;8.60;99.90;;;;;;5045899;28;20040;-48